sensor_id;sensor_type;location;lat;lon;timestamp;pressure;altitude;pressure_sealevel;temperature;humidity
71424;BME280;59240;51.370;-0.486;2024-03-08T00:00:38;101325.81;;;6.44;74.96
71424;BME280;59240;51.370;-0.486;2024-03-08T00:05:37;101307.66;;;6.36;74.97
71424;BME280;59240;51.370;-0.486;2024-03-08T00:10:35;101286.06;;;6.19;75.45
71424;BME280;59240;51.370;-0.486;2024-03-08T00:15:32;101312.84;;;6.36;75.84
71424;BME280;59240;51.370;-0.486;2024-03-08T00:20:29;101302.50;;;6.36;76.22
71424;BME280;59240;51.370;-0.486;2024-03-08T00:25:26;101288.69;;;6.34;75.82
71424;BME280;59240;51.370;-0.486;2024-03-08T00:30:23;101261.03;;;6.15;76.06
71424;BME280;59240;51.370;-0.486;2024-03-08T00:35:21;101263.63;;;6.19;76.45
71424;BME280;59240;51.370;-0.486;2024-03-08T00:40:19;101254.13;;;6.14;76.36
71424;BME280;59240;51.370;-0.486;2024-03-08T00:45:16;101242.91;;;6.06;76.29
71424;BME280;59240;51.370;-0.486;2024-03-08T00:50:13;101238.56;;;6.01;77.31
71424;BME280;59240;51.370;-0.486;2024-03-08T00:55:10;101255.84;;;6.13;77.15
71424;BME280;59240;51.370;-0.486;2024-03-08T01:00:08;101235.16;;;6.12;76.52
71424;BME280;59240;51.370;-0.486;2024-03-08T01:05:09;101237.72;;;6.04;77.00
71424;BME280;59240;51.370;-0.486;2024-03-08T01:10:06;101243.72;;;5.98;77.52
71424;BME280;59240;51.370;-0.486;2024-03-08T01:15:06;101236.81;;;5.96;77.14
71424;BME280;59240;51.370;-0.486;2024-03-08T01:20:07;101233.34;;;5.91;77.74
71424;BME280;59240;51.370;-0.486;2024-03-08T01:25:04;101225.53;;;5.85;77.66
71424;BME280;59240;51.370;-0.486;2024-03-08T01:30:01;101189.25;;;5.63;77.91
71424;BME280;59240;51.370;-0.486;2024-03-08T01:34:58;101184.03;;;5.59;77.70
71424;BME280;59240;51.370;-0.486;2024-03-08T01:39:55;101190.97;;;5.66;77.96
71424;BME280;59240;51.370;-0.486;2024-03-08T01:44:52;101164.19;;;5.55;78.44
71424;BME280;59240;51.370;-0.486;2024-03-08T01:49:49;101177.19;;;5.64;78.34
71424;BME280;59240;51.370;-0.486;2024-03-08T01:54:46;101178.03;;;5.69;78.36
71424;BME280;59240;51.370;-0.486;2024-03-08T01:59:43;101177.16;;;5.59;78.46
71424;BME280;59240;51.370;-0.486;2024-03-08T02:04:40;101153.81;;;5.48;78.53
71424;BME280;59240;51.370;-0.486;2024-03-08T02:09:37;101123.66;;;5.35;78.55
71424;BME280;59240;51.370;-0.486;2024-03-08T02:14:34;101145.25;;;5.49;78.53
71424;BME280;59240;51.370;-0.486;2024-03-08T02:19:31;101095.13;;;5.20;78.38
71424;BME280;59240;51.370;-0.486;2024-03-08T02:24:30;101123.66;;;5.37;78.72
71424;BME280;59240;51.370;-0.486;2024-03-08T02:29:27;101121.06;;;5.37;78.75
71424;BME280;59240;51.370;-0.486;2024-03-08T02:34:24;101111.56;;;5.33;79.05
71424;BME280;59240;51.370;-0.486;2024-03-08T02:39:20;101102.94;;;5.31;79.21
71424;BME280;59240;51.370;-0.486;2024-03-08T02:44:18;101088.28;;;5.28;79.59
71424;BME280;59240;51.370;-0.486;2024-03-08T02:49:18;101087.44;;;5.28;79.91
71424;BME280;59240;51.370;-0.486;2024-03-08T02:54:15;101081.44;;;5.30;79.98
71424;BME280;59240;51.370;-0.486;2024-03-08T02:59:13;101052.06;;;5.13;80.27
71424;BME280;59240;51.370;-0.486;2024-03-08T03:04:10;101079.72;;;5.31;80.31
71424;BME280;59240;51.370;-0.486;2024-03-08T03:09:07;101060.72;;;5.27;80.45
71424;BME280;59240;51.370;-0.486;2024-03-08T03:14:07;101056.44;;;5.28;80.53
71424;BME280;59240;51.370;-0.486;2024-03-08T03:19:04;101051.28;;;5.32;80.80
71424;BME280;59240;51.370;-0.486;2024-03-08T03:24:02;101042.69;;;5.29;81.12
71424;BME280;59240;51.370;-0.486;2024-03-08T03:29:00;101002.16;;;5.17;81.01
71424;BME280;59240;51.370;-0.486;2024-03-08T03:34:00;101020.28;;;5.34;81.08
71424;BME280;59240;51.370;-0.486;2024-03-08T03:39:00;101026.34;;;5.37;81.37
71424;BME280;59240;51.370;-0.486;2024-03-08T03:44:13;100991.84;;;5.23;81.37
71424;BME280;59240;51.370;-0.486;2024-03-08T03:49:10;101023.75;;;5.42;81.44
71424;BME280;59240;51.370;-0.486;2024-03-08T03:54:06;100992.72;;;5.27;81.94
71424;BME280;59240;51.370;-0.486;2024-03-08T03:59:04;101013.44;;;5.45;81.64
71424;BME280;59240;51.370;-0.486;2024-03-08T04:04:01;101010.03;;;5.51;82.11
71424;BME280;59240;51.370;-0.486;2024-03-08T04:08:58;101004.00;;;5.58;82.01
71424;BME280;59240;51.370;-0.486;2024-03-08T04:13:54;100982.44;;;5.45;82.41
71424;BME280;59240;51.370;-0.486;2024-03-08T04:18:52;101001.44;;;5.67;82.88
71424;BME280;59240;51.370;-0.486;2024-03-08T04:23:49;100996.28;;;5.70;82.74
71424;BME280;59240;51.370;-0.486;2024-03-08T04:28:46;100984.22;;;5.73;82.64
71424;BME280;59240;51.370;-0.486;2024-03-08T04:33:43;100988.53;;;5.79;82.57
71424;BME280;59240;51.370;-0.486;2024-03-08T04:38:41;100970.44;;;5.78;82.23
71424;BME280;59240;51.370;-0.486;2024-03-08T04:43:38;100972.16;;;5.77;82.46
71424;BME280;59240;51.370;-0.486;2024-03-08T04:48:35;100933.34;;;5.68;82.50
71424;BME280;59240;51.370;-0.486;2024-03-08T04:53:33;100957.50;;;5.79;82.29
71424;BME280;59240;51.370;-0.486;2024-03-08T04:58:31;100929.91;;;5.69;82.35
71424;BME280;59240;51.370;-0.486;2024-03-08T05:03:28;100917.00;;;5.69;82.39
71424;BME280;59240;51.370;-0.486;2024-03-08T05:08:26;100943.72;;;5.88;82.22
71424;BME280;59240;51.370;-0.486;2024-03-08T05:13:25;100939.41;;;5.88;82.66
71424;BME280;59240;51.370;-0.486;2024-03-08T05:18:21;100923.88;;;5.87;82.06
71424;BME280;59240;51.370;-0.486;2024-03-08T05:23:18;100924.75;;;5.87;81.85
71424;BME280;59240;51.370;-0.486;2024-03-08T05:28:16;100889.41;;;5.69;81.78
71424;BME280;59240;51.370;-0.486;2024-03-08T05:33:13;100917.88;;;5.86;81.88
71424;BME280;59240;51.370;-0.486;2024-03-08T05:38:11;100875.63;;;5.67;81.58
71424;BME280;59240;51.370;-0.486;2024-03-08T05:43:09;100905.81;;;5.84;81.53
71424;BME280;59240;51.370;-0.486;2024-03-08T05:48:07;100892.84;;;5.76;81.32
71424;BME280;59240;51.370;-0.486;2024-03-08T05:53:04;100857.56;;;5.51;81.56
71424;BME280;59240;51.370;-0.486;2024-03-08T05:58:06;100873.06;;;5.60;81.34
71424;BME280;59240;51.370;-0.486;2024-03-08T06:03:04;100885.13;;;5.67;81.85
71424;BME280;59240;51.370;-0.486;2024-03-08T06:08:01;100862.75;;;5.51;81.89
71424;BME280;59240;51.370;-0.486;2024-03-08T06:12:58;100849.81;;;5.44;81.80
71424;BME280;59240;51.370;-0.486;2024-03-08T06:17:56;100867.03;;;5.62;82.08
71424;BME280;59240;51.370;-0.486;2024-03-08T06:22:53;100854.13;;;5.64;82.63
71424;BME280;59240;51.370;-0.486;2024-03-08T06:27:50;100850.66;;;5.65;84.13
71424;BME280;59240;51.370;-0.486;2024-03-08T06:32:48;100857.53;;;5.73;82.93
71424;BME280;59240;51.370;-0.486;2024-03-08T06:37:45;100861.00;;;5.77;83.79
71424;BME280;59240;51.370;-0.486;2024-03-08T06:42:42;100862.72;;;5.81;83.70
71424;BME280;59240;51.370;-0.486;2024-03-08T06:47:39;100854.97;;;5.78;83.71
71424;BME280;59240;51.370;-0.486;2024-03-08T06:52:38;100856.66;;;5.90;83.93
71424;BME280;59240;51.370;-0.486;2024-03-08T06:57:35;100820.50;;;5.71;84.04
71424;BME280;59240;51.370;-0.486;2024-03-08T07:02:32;100861.00;;;5.95;84.53
71424;BME280;59240;51.370;-0.486;2024-03-08T07:07:31;100859.25;;;6.02;84.08
71424;BME280;59240;51.370;-0.486;2024-03-08T07:12:28;100861.00;;;6.05;84.14
71424;BME280;59240;51.370;-0.486;2024-03-08T07:17:25;100854.91;;;6.10;84.54
71424;BME280;59240;51.370;-0.486;2024-03-08T07:22:22;100853.19;;;6.15;84.53
71424;BME280;59240;51.370;-0.486;2024-03-08T07:27:20;100863.50;;;6.23;84.23
71424;BME280;59240;51.370;-0.486;2024-03-08T07:32:17;100846.28;;;6.26;84.32
71424;BME280;59240;51.370;-0.486;2024-03-08T07:37:22;100837.63;;;6.24;84.00
71424;BME280;59240;51.370;-0.486;2024-03-08T07:42:18;100854.78;;;6.51;83.86
71424;BME280;59240;51.370;-0.486;2024-03-08T07:47:16;100847.84;;;6.63;83.88
71424;BME280;59240;51.370;-0.486;2024-03-08T07:52:18;100844.28;;;6.83;84.02
71424;BME280;59240;51.370;-0.486;2024-03-08T07:57:15;100840.75;;;6.98;83.64
71424;BME280;59240;51.370;-0.486;2024-03-08T08:02:11;100827.63;;;7.20;83.69
71424;BME280;59240;51.370;-0.486;2024-03-08T08:07:08;100825.75;;;7.43;83.28
71424;BME280;59240;51.370;-0.486;2024-03-08T08:12:05;100801.53;;;7.41;83.12
71424;BME280;59240;51.370;-0.486;2024-03-08T08:17:04;100829.72;;;7.82;82.88
71424;BME280;59240;51.370;-0.486;2024-03-08T08:22:02;100820.97;;;7.91;82.30
71424;BME280;59240;51.370;-0.486;2024-03-08T08:26:59;100819.91;;;8.10;82.14
71424;BME280;59240;51.370;-0.486;2024-03-08T08:32:00;100810.28;;;8.18;81.42
71424;BME280;59240;51.370;-0.486;2024-03-08T08:36:59;100794.56;;;8.29;80.84
71424;BME280;59240;51.370;-0.486;2024-03-08T08:41:56;100791.03;;;8.39;79.94
71424;BME280;59240;51.370;-0.486;2024-03-08T08:46:53;100779.72;;;8.45;79.68
71424;BME280;59240;51.370;-0.486;2024-03-08T08:51:58;100726.22;;;8.29;79.00
71424;BME280;59240;51.370;-0.486;2024-03-08T08:57:04;100777.66;;;8.68;78.02
71424;BME280;59240;51.370;-0.486;2024-03-08T09:02:04;100744.72;;;8.70;77.65
71424;BME280;59240;51.370;-0.486;2024-03-08T09:07:01;100733.34;;;8.79;77.73
71424;BME280;59240;51.370;-0.486;2024-03-08T09:11:59;100745.84;;;9.10;75.87
71424;BME280;59240;51.370;-0.486;2024-03-08T09:16:55;100738.91;;;9.10;73.42
71424;BME280;59240;51.370;-0.486;2024-03-08T09:21:53;100711.13;;;9.12;75.30
71424;BME280;59240;51.370;-0.486;2024-03-08T09:26:49;100715.91;;;9.37;74.53
71424;BME280;59240;51.370;-0.486;2024-03-08T09:31:46;100719.72;;;9.65;73.41
71424;BME280;59240;51.370;-0.486;2024-03-08T09:36:44;100708.97;;;9.83;70.98
71424;BME280;59240;51.370;-0.486;2024-03-08T09:41:41;100686.88;;;10.03;72.35
71424;BME280;59240;51.370;-0.486;2024-03-08T09:46:38;100654.50;;;10.14;69.82
71424;BME280;59240;51.370;-0.486;2024-03-08T09:51:35;100675.16;;;10.61;69.72
71424;BME280;59240;51.370;-0.486;2024-03-08T09:56:37;100643.69;;;10.70;67.68
71424;BME280;59240;51.370;-0.486;2024-03-08T10:01:37;100627.44;;;10.94;68.08
71424;BME280;59240;51.370;-0.486;2024-03-08T10:06:35;100647.25;;;11.34;66.66
71424;BME280;59240;51.370;-0.486;2024-03-08T10:11:33;100638.44;;;11.69;64.33
71424;BME280;59240;51.370;-0.486;2024-03-08T10:16:31;100615.56;;;11.77;62.26
71424;BME280;59240;51.370;-0.486;2024-03-08T10:21:28;100607.69;;;11.79;61.64
71424;BME280;59240;51.370;-0.486;2024-03-08T10:26:25;100605.91;;;12.11;62.23
71424;BME280;59240;51.370;-0.486;2024-03-08T10:31:22;100596.59;;;12.30;62.15
71424;BME280;59240;51.370;-0.486;2024-03-08T10:36:19;100599.59;;;12.71;60.69
71424;BME280;59240;51.370;-0.486;2024-03-08T10:41:16;100571.97;;;12.64;58.84
71424;BME280;59240;51.370;-0.486;2024-03-08T10:51:37;100564.59;;;13.00;56.52
71424;BME280;59240;51.370;-0.486;2024-03-08T10:56:35;100557.81;;;13.19;57.57
71424;BME280;59240;51.370;-0.486;2024-03-08T11:01:31;100558.31;;;13.54;57.55
71424;BME280;59240;51.370;-0.486;2024-03-08T11:11:34;100555.78;;;13.96;53.50
71424;BME280;59240;51.370;-0.486;2024-03-08T11:21:29;100505.34;;;13.91;48.21
71424;BME280;59240;51.370;-0.486;2024-03-08T11:26:29;100541.06;;;14.15;51.96
71424;BME280;59240;51.370;-0.486;2024-03-08T11:31:27;100505.94;;;14.19;51.20
71424;BME280;59240;51.370;-0.486;2024-03-08T11:36:25;100516.41;;;14.19;49.52
71424;BME280;59240;51.370;-0.486;2024-03-08T11:41:23;100515.78;;;14.14;45.80
71424;BME280;59240;51.370;-0.486;2024-03-08T11:46:21;100502.41;;;14.20;47.33
71424;BME280;59240;51.370;-0.486;2024-03-08T11:51:17;100483.53;;;14.12;48.35
71424;BME280;59240;51.370;-0.486;2024-03-08T11:56:16;100478.28;;;14.34;46.85
71424;BME280;59240;51.370;-0.486;2024-03-08T12:01:13;100475.72;;;14.53;47.34
71424;BME280;59240;51.370;-0.486;2024-03-08T12:06:11;100486.69;;;14.82;47.25
71424;BME280;59240;51.370;-0.486;2024-03-08T12:11:10;100454.84;;;14.91;48.34
71424;BME280;59240;51.370;-0.486;2024-03-08T12:16:09;100464.28;;;15.14;48.53
71424;BME280;59240;51.370;-0.486;2024-03-08T12:21:10;100441.81;;;15.27;47.31
71424;BME280;59240;51.370;-0.486;2024-03-08T12:26:12;100416.06;;;15.16;47.77
71424;BME280;59240;51.370;-0.486;2024-03-08T12:31:13;100417.47;;;15.23;46.42
71424;BME280;59240;51.370;-0.486;2024-03-08T12:36:15;100436.13;;;15.36;47.62
71424;BME280;59240;51.370;-0.486;2024-03-08T12:41:12;100433.72;;;15.31;48.05
71424;BME280;59240;51.370;-0.486;2024-03-08T12:46:09;100425.41;;;15.41;46.73
71424;BME280;59240;51.370;-0.486;2024-03-08T12:51:07;100417.34;;;15.26;47.18
71424;BME280;59240;51.370;-0.486;2024-03-08T12:56:05;100390.91;;;15.12;47.06
71424;BME280;59240;51.370;-0.486;2024-03-08T13:01:05;100408.53;;;15.09;46.57
71424;BME280;59240;51.370;-0.486;2024-03-08T13:06:07;100392.38;;;14.80;46.09
71424;BME280;59240;51.370;-0.486;2024-03-08T13:11:05;100387.25;;;14.58;47.03
71424;BME280;59240;51.370;-0.486;2024-03-08T13:16:04;100395.13;;;14.58;47.17
71424;BME280;59240;51.370;-0.486;2024-03-08T13:21:05;100392.84;;;14.50;47.79
71424;BME280;59240;51.370;-0.486;2024-03-08T13:26:12;100385.41;;;14.60;46.76
71424;BME280;59240;51.370;-0.486;2024-03-08T13:31:12;100341.31;;;14.10;47.56
71424;BME280;59240;51.370;-0.486;2024-03-08T13:36:11;100368.66;;;14.23;48.54
71424;BME280;59240;51.370;-0.486;2024-03-08T13:41:17;100330.69;;;14.13;48.99
71424;BME280;59240;51.370;-0.486;2024-03-08T13:46:17;100360.16;;;14.18;48.45
71424;BME280;59240;51.370;-0.486;2024-03-08T13:51:14;100361.81;;;14.01;48.94
71424;BME280;59240;51.370;-0.486;2024-03-08T13:56:12;100338.41;;;13.76;49.41
71424;BME280;59240;51.370;-0.486;2024-03-08T14:01:09;100335.59;;;13.60;48.50
71424;BME280;59240;51.370;-0.486;2024-03-08T14:06:09;100330.03;;;13.47;48.92
71424;BME280;59240;51.370;-0.486;2024-03-08T14:11:21;100328.31;;;13.24;49.52
71424;BME280;59240;51.370;-0.486;2024-03-08T14:16:20;100317.59;;;13.30;50.43
71424;BME280;59240;51.370;-0.486;2024-03-08T14:21:17;100316.41;;;13.39;49.99
71424;BME280;59240;51.370;-0.486;2024-03-08T14:26:14;100309.97;;;13.26;50.38
71424;BME280;59240;51.370;-0.486;2024-03-08T14:31:12;100304.72;;;13.26;50.46
71424;BME280;59240;51.370;-0.486;2024-03-08T14:36:09;100271.06;;;13.17;49.34
71424;BME280;59240;51.370;-0.486;2024-03-08T14:41:11;100276.66;;;13.29;50.40
71424;BME280;59240;51.370;-0.486;2024-03-08T14:46:08;100253.13;;;13.07;50.31
71424;BME280;59240;51.370;-0.486;2024-03-08T14:51:05;100273.66;;;13.17;50.49
71424;BME280;59240;51.370;-0.486;2024-03-08T14:56:06;100244.25;;;13.11;50.66
71424;BME280;59240;51.370;-0.486;2024-03-08T15:01:05;100262.50;;;13.35;49.83
71424;BME280;59240;51.370;-0.486;2024-03-08T15:06:04;100242.81;;;13.04;49.73
71424;BME280;59240;51.370;-0.486;2024-03-08T15:11:05;100249.34;;;13.14;49.67
71424;BME280;59240;51.370;-0.486;2024-03-08T15:16:03;100208.75;;;13.06;50.58
71424;BME280;59240;51.370;-0.486;2024-03-08T15:21:06;100237.91;;;13.17;50.51
71424;BME280;59240;51.370;-0.486;2024-03-08T15:26:03;100248.13;;;13.45;50.34
71424;BME280;59240;51.370;-0.486;2024-03-08T15:31:05;100239.09;;;13.52;50.81
71424;BME280;59240;51.370;-0.486;2024-03-08T15:36:03;100226.06;;;13.51;50.75
71424;BME280;59240;51.370;-0.486;2024-03-08T15:41:05;100200.69;;;13.32;51.01
71424;BME280;59240;51.370;-0.486;2024-03-08T15:46:08;100184.16;;;13.32;51.31
71424;BME280;59240;51.370;-0.486;2024-03-08T15:51:05;100221.56;;;13.54;50.85
71424;BME280;59240;51.370;-0.486;2024-03-08T15:56:03;100232.88;;;13.34;50.57
71424;BME280;59240;51.370;-0.486;2024-03-08T16:01:04;100199.97;;;12.65;50.05
71424;BME280;59240;51.370;-0.486;2024-03-08T16:06:04;100188.59;;;12.22;51.00
71424;BME280;59240;51.370;-0.486;2024-03-08T16:11:03;100208.38;;;12.04;51.37
71424;BME280;59240;51.370;-0.486;2024-03-08T16:16:03;100168.31;;;11.57;52.05
71424;BME280;59240;51.370;-0.486;2024-03-08T16:21:00;100194.97;;;11.41;52.63
71424;BME280;59240;51.370;-0.486;2024-03-08T16:25:59;100196.00;;;11.11;53.12
71424;BME280;59240;51.370;-0.486;2024-03-08T16:30:56;100164.56;;;10.89;53.54
71424;BME280;59240;51.370;-0.486;2024-03-08T16:35:55;100184.78;;;10.82;54.18
71424;BME280;59240;51.370;-0.486;2024-03-08T16:40:53;100183.56;;;10.66;54.54
71424;BME280;59240;51.370;-0.486;2024-03-08T16:45:51;100171.84;;;10.53;55.14
71424;BME280;59240;51.370;-0.486;2024-03-08T16:50:51;100166.94;;;10.44;55.46
71424;BME280;59240;51.370;-0.486;2024-03-08T16:55:51;100177.75;;;10.30;55.76
71424;BME280;59240;51.370;-0.486;2024-03-08T17:00:49;100132.91;;;9.91;56.16
71424;BME280;59240;51.370;-0.486;2024-03-08T17:05:46;100166.56;;;9.97;56.80
71424;BME280;59240;51.370;-0.486;2024-03-08T17:10:51;100148.16;;;9.73;57.13
71424;BME280;59240;51.370;-0.486;2024-03-08T17:15:49;100157.03;;;9.66;57.37
71424;BME280;59240;51.370;-0.486;2024-03-08T17:20:46;100169.22;;;9.64;58.03
71424;BME280;59240;51.370;-0.486;2024-03-08T17:25:43;100164.28;;;9.55;58.21
71424;BME280;59240;51.370;-0.486;2024-03-08T17:30:41;100121.91;;;9.20;58.29
71424;BME280;59240;51.370;-0.486;2024-03-08T17:35:41;100127.34;;;9.11;58.98
71424;BME280;59240;51.370;-0.486;2024-03-08T17:40:40;100139.63;;;9.06;59.65
71424;BME280;59240;51.370;-0.486;2024-03-08T17:45:39;100165.41;;;9.12;60.03
71424;BME280;59240;51.370;-0.486;2024-03-08T17:50:40;100139.84;;;8.97;59.92
71424;BME280;59240;51.370;-0.486;2024-03-08T17:55:38;100152.91;;;8.94;60.79
71424;BME280;59240;51.370;-0.486;2024-03-08T18:00:38;100147.06;;;8.86;60.62
71424;BME280;59240;51.370;-0.486;2024-03-08T18:05:37;100135.34;;;8.69;60.56
71424;BME280;59240;51.370;-0.486;2024-03-08T18:10:35;100123.47;;;8.59;61.17
71424;BME280;59240;51.370;-0.486;2024-03-08T18:15:32;100142.38;;;8.64;61.33
71424;BME280;59240;51.370;-0.486;2024-03-08T18:20:32;100148.47;;;8.63;62.01
71424;BME280;59240;51.370;-0.486;2024-03-08T18:25:33;100145.16;;;8.58;62.74
71424;BME280;59240;51.370;-0.486;2024-03-08T18:30:30;100116.88;;;8.46;62.27
71424;BME280;59240;51.370;-0.486;2024-03-08T18:35:27;100122.25;;;8.37;62.72
71424;BME280;59240;51.370;-0.486;2024-03-08T18:40:24;100136.00;;;8.42;62.91
71424;BME280;59240;51.370;-0.486;2024-03-08T18:45:23;100135.19;;;8.40;63.30
71424;BME280;59240;51.370;-0.486;2024-03-08T18:50:23;100124.09;;;8.32;63.63
71424;BME280;59240;51.370;-0.486;2024-03-08T18:55:25;100123.25;;;8.31;63.56
71424;BME280;59240;51.370;-0.486;2024-03-08T19:00:25;100090.03;;;8.10;64.05
71424;BME280;59240;51.370;-0.486;2024-03-08T19:05:35;100117.97;;;8.34;64.10
71424;BME280;59240;51.370;-0.486;2024-03-08T19:10:32;100098.03;;;8.38;64.31
71424;BME280;59240;51.370;-0.486;2024-03-08T19:15:29;100076.66;;;8.27;64.32
71424;BME280;59240;51.370;-0.486;2024-03-08T19:20:30;100062.91;;;8.21;64.59
71424;BME280;59240;51.370;-0.486;2024-03-08T19:25:32;100039.84;;;8.09;64.68
71424;BME280;59240;51.370;-0.486;2024-03-08T19:30:30;100063.66;;;8.27;65.17
71424;BME280;59240;51.370;-0.486;2024-03-08T19:35:28;100065.47;;;8.25;65.04
71424;BME280;59240;51.370;-0.486;2024-03-08T19:40:30;100059.31;;;8.27;66.03
71424;BME280;59240;51.370;-0.486;2024-03-08T19:45:30;100059.28;;;8.29;67.08
71424;BME280;59240;51.370;-0.486;2024-03-08T19:50:28;100051.59;;;8.26;66.09
71424;BME280;59240;51.370;-0.486;2024-03-08T19:55:25;100032.81;;;8.14;66.67
71424;BME280;59240;51.370;-0.486;2024-03-08T20:00:22;100028.56;;;8.12;66.40
71424;BME280;59240;51.370;-0.486;2024-03-08T20:05:29;100035.34;;;8.17;67.19
71424;BME280;59240;51.370;-0.486;2024-03-08T20:10:27;100022.53;;;8.11;66.77
71424;BME280;59240;51.370;-0.486;2024-03-08T20:15:25;100017.34;;;8.11;67.71
71424;BME280;59240;51.370;-0.486;2024-03-08T20:20:22;100014.59;;;8.17;67.10
71424;BME280;59240;51.370;-0.486;2024-03-08T20:25:20;100006.13;;;8.09;67.53
71424;BME280;59240;51.370;-0.486;2024-03-08T20:30:19;100007.81;;;8.12;67.95
71424;BME280;59240;51.370;-0.486;2024-03-08T20:35:20;99989.84;;;8.04;68.23
71424;BME280;59240;51.370;-0.486;2024-03-08T20:40:18;99982.97;;;8.03;68.79
71424;BME280;59240;51.370;-0.486;2024-03-08T20:45:23;99991.34;;;8.13;68.94
71424;BME280;59240;51.370;-0.486;2024-03-08T20:50:22;99984.44;;;8.13;68.97
71424;BME280;59240;51.370;-0.486;2024-03-08T20:55:22;99946.78;;;7.97;69.32
71424;BME280;59240;51.370;-0.486;2024-03-08T21:00:21;99955.97;;;8.10;69.31
71424;BME280;59240;51.370;-0.486;2024-03-08T21:05:37;99920.91;;;7.94;69.00
71424;BME280;59240;51.370;-0.486;2024-03-08T21:10:35;99951.59;;;8.12;69.63
71424;BME280;59240;51.370;-0.486;2024-03-08T21:15:32;99907.16;;;7.92;70.04
71424;BME280;59240;51.370;-0.486;2024-03-08T21:20:29;99907.03;;;7.97;69.86
71424;BME280;59240;51.370;-0.486;2024-03-08T21:25:26;99929.84;;;8.18;70.02
71424;BME280;59240;51.370;-0.486;2024-03-08T21:30:23;99918.66;;;8.14;70.10
71424;BME280;59240;51.370;-0.486;2024-03-08T21:35:24;99902.31;;;8.12;70.23
71424;BME280;59240;51.370;-0.486;2024-03-08T21:40:21;99895.91;;;8.26;70.83
71424;BME280;59240;51.370;-0.486;2024-03-08T21:45:20;99885.00;;;8.13;71.00
71424;BME280;59240;51.370;-0.486;2024-03-08T21:50:19;99878.91;;;8.14;71.04
71424;BME280;59240;51.370;-0.486;2024-03-08T21:55:16;99890.63;;;8.29;71.14
71424;BME280;59240;51.370;-0.486;2024-03-08T22:00:14;99856.34;;;8.17;71.27
71424;BME280;59240;51.370;-0.486;2024-03-08T22:05:15;99868.72;;;8.40;71.19
71424;BME280;59240;51.370;-0.486;2024-03-08T22:10:18;99863.41;;;8.45;71.38
71424;BME280;59240;51.370;-0.486;2024-03-08T22:15:24;99856.50;;;8.44;71.59
71424;BME280;59240;51.370;-0.486;2024-03-08T22:20:22;99828.13;;;8.38;71.66
71424;BME280;59240;51.370;-0.486;2024-03-08T22:25:23;99851.72;;;8.60;71.90
71424;BME280;59240;51.370;-0.486;2024-03-08T22:30:21;99819.19;;;8.48;71.96
71424;BME280;59240;51.370;-0.486;2024-03-08T22:35:20;99824.09;;;8.57;71.84
71424;BME280;59240;51.370;-0.486;2024-03-08T22:40:22;99817.88;;;8.63;71.70
71424;BME280;59240;51.370;-0.486;2024-03-08T22:45:24;99818.66;;;8.66;71.69
71424;BME280;59240;51.370;-0.486;2024-03-08T22:50:21;99804.06;;;8.62;71.34
71424;BME280;59240;51.370;-0.486;2024-03-08T22:55:22;99796.38;;;8.59;71.09
71424;BME280;59240;51.370;-0.486;2024-03-08T23:00:20;99782.78;;;8.51;71.44
71424;BME280;59240;51.370;-0.486;2024-03-08T23:05:21;99752.06;;;8.36;71.35
71424;BME280;59240;51.370;-0.486;2024-03-08T23:10:20;99772.47;;;8.48;71.78
71424;BME280;59240;51.370;-0.486;2024-03-08T23:15:19;99734.25;;;8.23;71.81
71424;BME280;59240;51.370;-0.486;2024-03-08T23:20:21;99765.91;;;8.35;71.70
71424;BME280;59240;51.370;-0.486;2024-03-08T23:25:20;99735.38;;;8.13;72.06
71424;BME280;59240;51.370;-0.486;2024-03-08T23:30:21;99748.97;;;8.21;72.31
71424;BME280;59240;51.370;-0.486;2024-03-08T23:35:22;99713.44;;;7.94;72.40
71424;BME280;59240;51.370;-0.486;2024-03-08T23:40:20;99725.28;;;8.04;72.81
71424;BME280;59240;51.370;-0.486;2024-03-08T23:45:18;99717.53;;;8.03;72.82
71424;BME280;59240;51.370;-0.486;2024-03-08T23:50:18;99739.72;;;8.13;72.89
71424;BME280;59240;51.370;-0.486;2024-03-08T23:55:23;99719.25;;;8.02;73.20
